Alma, Illinois
Current Conditions -  °F | °C
As of 6:55 PM on Monday 22 Dec 2014 (Local Time) from KSLO Reporting Station
Moderate Rain Moderate Rain  
Wind Chill: 51°   Ceiling: 600
Heat Index: 51°   Visibility: 4mi
Dew Point: 48°   Wind: 6mph
Humidity: 92%   Direction: 150°SSE
Pressure: 29.58"   Gusts: NA
Location:  38.72°N, 88.91°W
Report Text: KSLO 230055Z AUTO 15005KT 4SM RA OVC006 10/09 A2958 RMK AO2 P0001 T01030091
Loading
Personal Weather Stations






























Interactive Weather Map New forecast layout! Learn more

10-Day Weather Forecast

Advertisements
Track Severe Weather on mobile